Time;durP1;ratioP1;P1;durP2;ratioP2;P2;SDS_P1;SDS_P2;PMS_P1;PMS_P2;Temp;Humidity;BMP_temperature;BMP_pressure;BME280_temperature;BME280_humidity;BME280_pressure;Samples;Min_cycle;Max_cycle;Signal;HPM_P1;HPM_P2
2021/05/18 00:00:46;;;;;;;12.28;6.90;;;;;;;15.22;100.00;99612.02;1694890;84;21092;-62
2021/05/18 00:03:15;;;;;;;9.18;7.28;;;;;;;15.21;100.00;99612.98;1702792;82;21434;-62
2021/05/18 00:05:45;;;;;;;9.95;6.87;;;;;;;15.19;100.00;99611.73;1698815;82;20903;-60
2021/05/18 00:08:13;;;;;;;11.40;7.35;;;;;;;15.17;100.00;99616.39;1695507;82;21022;-62
2021/05/18 00:13:33;;;;;;;12.37;7.42;;;;;;;15.14;100.00;99624.24;1695189;84;21136;-61
2021/05/18 00:16:00;;;;;;;9.18;7.60;;;;;;;15.13;100.00;99604.09;1685155;83;21073;-62
2021/05/18 00:18:27;;;;;;;11.05;7.70;;;;;;;15.12;100.00;99606.42;1700267;82;21130;-62
2021/05/18 00:20:55;;;;;;;10.50;7.40;;;;;;;15.10;100.00;99605.16;1685097;81;22254;-62
2021/05/18 00:23:21;;;;;;;11.35;7.12;;;;;;;15.09;100.00;99602.09;1700194;82;21018;-62
2021/05/18 00:25:48;;;;;;;16.77;8.10;;;;;;;15.10;100.00;99605.16;1698138;82;21480;-62
2021/05/18 00:28:15;;;;;;;11.18;7.83;;;;;;;15.11;100.00;99602.00;1680502;83;21472;-64
2021/05/18 00:30:41;;;;;;;13.75;8.23;;;;;;;15.12;100.00;99600.52;1704006;82;21143;-62
2021/05/18 00:33:17;;;;;;;12.60;8.20;;;;;;;15.13;100.00;99590.59;1650827;86;21636;-63
2021/05/18 00:35:44;;;;;;;13.03;8.20;;;;;;;15.14;100.00;99590.50;1697232;83;21071;-60
2021/05/18 00:38:12;;;;;;;10.00;7.92;;;;;;;15.15;100.00;99577.38;1661025;84;21130;-62
2021/05/18 00:40:40;;;;;;;16.75;8.75;;;;;;;15.17;100.00;99582.64;1703338;81;21542;-64
2021/05/18 00:43:07;;;;;;;10.48;7.87;;;;;;;15.17;100.00;99580.82;1708066;82;20924;-61
2021/05/18 00:45:37;;;;;;;14.87;8.90;;;;;;;15.17;100.00;99580.82;1714194;83;21077;-63
2021/05/18 00:48:06;;;;;;;12.07;9.40;;;;;;;15.16;100.00;99577.75;1674346;84;21149;-62
2021/05/18 00:50:34;;;;;;;16.07;8.80;;;;;;;15.17;100.00;99574.08;1685371;82;21094;-64
2021/05/18 00:53:01;;;;;;;13.10;9.38;;;;;;;15.17;100.00;99568.67;1701880;83;21596;-64
2021/05/18 01:00:43;;;;;;;12.68;9.55;;;;;;;15.13;100.00;99569.84;1701824;83;21121;-61
2021/05/18 01:03:10;;;;;;;14.47;10.82;;;;;;;15.11;100.00;99568.25;1709472;82;21596;-62
2021/05/18 01:08:23;;;;;;;19.02;11.38;;;;;;;15.09;100.00;99573.75;1700443;82;21081;-64
2021/05/18 01:10:50;;;;;;;14.00;11.00;;;;;;;15.09;100.00;99571.05;1702838;82;21186;-63
2021/05/18 01:13:16;;;;;;;16.62;10.88;;;;;;;15.07;100.00;99568.95;1709714;83;21184;-63
2021/05/18 01:15:43;;;;;;;15.40;10.70;;;;;;;15.06;100.00;99573.13;1684177;83;21800;-64
2021/05/18 01:18:09;;;;;;;13.45;10.45;;;;;;;15.06;100.00;99573.13;1645925;86;21574;-62
2021/05/18 01:20:42;;;;;;;17.37;10.85;;;;;;;15.06;100.00;99572.63;1658887;84;21576;-62
2021/05/18 01:23:09;;;;;;;13.20;9.50;;;;;;;15.06;100.00;99576.67;1657255;85;20974;-63
2021/05/18 01:25:36;;;;;;;13.22;9.50;;;;;;;15.07;100.00;99568.95;1663989;85;21113;-64
2021/05/18 01:28:04;;;;;;;15.13;9.30;;;;;;;15.08;100.00;99569.33;1671088;84;22069;-64
2021/05/18 01:30:31;;;;;;;12.03;8.88;;;;;;;15.08;100.00;99566.63;1673866;84;21220;-64
2021/05/18 01:32:58;;;;;;;14.87;9.58;;;;;;;15.08;100.00;99559.87;1666145;85;21136;-64
2021/05/18 01:35:26;;;;;;;11.53;8.00;;;;;;;15.09;100.00;99567.51;1676116;85;21748;-64
2021/05/18 01:37:52;;;;;;;14.65;8.33;;;;;;;15.08;100.00;99566.63;1635292;85;21158;-62
2021/05/18 01:42:54;;;;;;;18.15;8.15;;;;;;;15.12;100.00;99570.82;1676336;83;21097;-64
2021/05/18 01:45:29;;;;;;;13.40;7.53;;;;;;;15.13;100.00;99568.49;1682018;83;21070;-63
2021/05/18 01:48:02;;;;;;;13.03;8.70;;;;;;;15.13;100.00;99565.80;1673627;84;21106;-63
2021/05/18 01:50:31;;;;;;;9.60;7.42;;;;;;;15.15;100.00;99565.22;1678266;85;21107;-61
2021/05/18 01:52:58;;;;;;;13.20;8.18;;;;;;;15.15;100.00;99577.84;1673666;84;22036;-62
2021/05/18 01:55:35;;;;;;;13.00;7.80;;;;;;;15.15;100.00;99565.22;1673895;83;21066;-63
2021/05/18 01:57:58;;;;;;;13.10;8.13;;;;;;;15.14;100.00;99567.55;1657836;85;21066;-63
2021/05/18 02:00:28;;;;;;;14.80;8.38;;;;;;;15.13;100.00;99563.60;1680136;83;21158;-62
2021/05/18 02:02:56;;;;;;;12.03;7.80;;;;;;;15.13;100.00;99565.80;1679299;84;21124;-62
2021/05/18 02:05:29;;;;;;;12.73;8.08;;;;;;;15.11;100.00;99556.95;1680223;85;21137;-62
2021/05/18 02:08:12;;;;;;;12.33;8.28;;;;;;;15.11;100.00;99558.30;1620435;85;21588;-62
2021/05/18 02:10:40;;;;;;;16.80;8.45;;;;;;;15.10;100.00;99553.88;1647781;85;21174;-60
2021/05/18 02:13:10;;;;;;;12.85;7.97;;;;;;;15.07;100.00;99546.02;1671962;85;21074;-61
2021/05/18 02:19:12;;;;;;;14.38;8.28;;;;;;;15.07;100.00;99554.11;1680123;85;21414;-61
2021/05/18 02:20:50;;;;;;;12.98;8.03;;;;;;;15.07;100.00;99546.02;1650122;85;21107;-65
2021/05/18 02:26:05;;;;;;;19.37;9.08;;;;;;;15.08;100.00;99545.03;1676591;84;21387;-60
2021/05/18 02:28:39;;;;;;;11.60;9.05;;;;;;;15.09;100.00;99545.41;1680230;83;26856;-61
2021/05/18 02:31:06;;;;;;;14.70;8.40;;;;;;;15.10;100.00;99548.48;1671178;84;21162;-61
2021/05/18 02:33:38;;;;;;;15.65;8.28;;;;;;;15.11;100.00;99539.41;1704391;83;21109;-60
2021/05/18 02:36:05;;;;;;;12.35;8.25;;;;;;;15.13;100.00;99545.55;1717510;83;21073;-62
2021/05/18 02:38:33;;;;;;;11.73;8.65;;;;;;;15.14;100.00;99539.21;1702390;82;21081;-63
2021/05/18 02:41:01;;;;;;;16.75;9.50;;;;;;;15.15;100.00;99534.19;1706201;82;21086;-62
2021/05/18 02:43:37;;;;;;;14.80;9.25;;;;;;;15.16;100.00;99539.08;1696920;83;21092;-64
2021/05/18 02:49:04;;;;;;;14.90;8.50;;;;;;;15.15;100.00;99535.53;1714780;83;21966;-63
2021/05/18 02:51:25;;;;;;;14.20;9.08;;;;;;;15.16;100.00;99533.20;1695895;83;21109;-64
2021/05/18 02:53:54;;;;;;;13.43;8.58;;;;;;;15.15;100.00;99543.63;1655536;85;21023;-64
2021/05/18 02:56:29;;;;;;;12.55;8.25;;;;;;;15.17;100.00;99543.03;1698664;82;21048;-64
2021/05/18 02:59:13;;;;;;;10.35;8.23;;;;;;;15.20;100.00;99542.42;1703122;83;21030;-62
2021/05/18 03:01:30;;;;;;;18.27;9.80;;;;;;;15.26;100.00;99547.36;1705481;80;21644;-61
2021/05/18 03:03:57;;;;;;;13.53;8.18;;;;;;;15.31;100.00;99542.48;1695092;83;21589;-63
2021/05/18 03:06:24;;;;;;;11.85;8.60;;;;;;;15.36;100.00;99535.39;1682274;84;21070;-64
2021/05/18 03:08:51;;;;;;;16.32;7.50;;;;;;;15.41;100.00;99536.78;1700500;83;21673;-64
2021/05/18 03:11:18;;;;;;;14.10;7.97;;;;;;;15.51;100.00;99540.12;1695940;83;21087;-62
2021/05/18 03:13:44;;;;;;;15.65;8.03;;;;;;;15.58;100.00;99534.63;1698880;84;21097;-62
2021/05/18 03:16:12;;;;;;;14.58;8.18;;;;;;;15.65;100.00;99539.08;1700877;84;21111;-62
2021/05/18 03:18:39;;;;;;;12.58;7.87;;;;;;;15.70;100.00;99551.78;1680336;84;22396;-64
2021/05/18 03:21:07;;;;;;;13.62;7.55;;;;;;;15.74;100.00;99559.52;1696916;84;21679;-64
2021/05/18 03:23:34;;;;;;;17.40;7.75;;;;;;;15.82;100.00;99564.84;1689260;84;21537;-61
2021/05/18 03:26:00;;;;;;;17.10;7.95;;;;;;;15.84;100.00;99556.97;1704889;83;21308;-62
2021/05/18 03:28:27;;;;;;;12.45;6.85;;;;;;;15.88;100.00;99556.26;1647479;84;21103;-65
2021/05/18 03:34:27;;;;;;;17.10;6.70;;;;;;;15.94;100.00;99551.76;1652769;85;21243;-64
2021/05/18 03:36:10;;;;;;;10.75;7.25;;;;;;;16.11;100.00;99559.06;1664177;84;24600;-61
2021/05/18 03:38:43;;;;;;;14.95;6.87;;;;;;;16.22;100.00;99558.23;1659268;84;21116;-63
2021/05/18 03:41:19;;;;;;;16.90;7.45;;;;;;;16.28;100.00;99553.22;1651074;84;21215;-63
2021/05/18 03:43:53;;;;;;;16.02;7.08;;;;;;;16.36;100.00;99558.50;1662436;84;21101;-62
2021/05/18 04:18:18;;;;;;;9.55;4.60;;;;;;;18.20;100.00;99583.33;1653347;86;28669;-62
2021/05/18 04:20:54;;;;;;;11.80;4.55;;;;;;;18.35;99.06;99585.24;1661370;84;21145;-62
2021/05/18 04:50:42;;;;;;;9.48;3.15;;;;;;;18.78;89.05;99606.41;1700568;84;21165;-65
2021/05/18 05:01:00;;;;;;;5.25;2.70;;;;;;;18.51;87.08;99583.41;1690373;84;21679;-64
2021/05/18 05:06:23;;;;;;;6.28;2.90;;;;;;;18.26;87.78;99564.31;1699275;83;21407;-64
2021/05/18 05:14:17;;;;;;;8.65;2.98;;;;;;;17.92;91.52;99576.69;1674972;83;21128;-64
2021/05/18 05:16:37;;;;;;;3.67;3.10;;;;;;;17.79;93.11;99591.73;1698261;82;21085;-64
2021/05/18 05:19:03;;;;;;;10.10;3.77;;;;;;;17.60;95.38;99592.80;1695319;83;21182;-65
2021/05/18 05:21:32;;;;;;;8.88;3.20;;;;;;;17.40;96.87;99582.27;1684779;83;21177;-64
2021/05/18 05:23:58;;;;;;;8.68;3.10;;;;;;;17.25;97.32;99591.16;1674260;84;21081;-64
2021/05/18 05:26:25;;;;;;;7.28;3.33;;;;;;;17.13;97.48;99597.09;1697351;84;21127;-65
2021/05/18 05:28:51;;;;;;;6.33;2.77;;;;;;;17.00;97.68;99590.92;1699996;83;21705;-66
2021/05/18 05:31:18;;;;;;;10.08;2.55;;;;;;;16.89;97.61;99598.02;1696576;82;21773;-66
2021/05/18 05:33:44;;;;;;;5.42;2.62;;;;;;;16.80;97.58;99598.77;1684261;84;21496;-66
2021/05/18 05:36:11;;;;;;;6.33;2.83;;;;;;;16.70;97.58;99610.81;1698261;83;21121;-64
2021/05/18 05:38:38;;;;;;;7.37;2.60;;;;;;;16.58;98.06;99613.99;1693220;83;22396;-63
2021/05/18 05:41:06;;;;;;;7.12;2.50;;;;;;;16.46;98.62;99624.41;1684449;82;21078;-63
2021/05/18 05:43:32;;;;;;;5.42;2.55;;;;;;;16.35;99.56;99616.28;1695695;83;21213;-65
2021/05/18 05:45:59;;;;;;;7.92;2.80;;;;;;;16.25;100.00;99621.06;1699943;82;21119;-63
2021/05/18 05:48:26;;;;;;;3.37;2.67;;;;;;;16.20;100.00;99607.52;1695519;82;21149;-62
2021/05/18 05:50:52;;;;;;;6.20;2.98;;;;;;;16.13;100.00;99593.60;1679194;83;21149;-64
2021/05/18 05:53:18;;;;;;;4.78;2.50;;;;;;;16.07;100.00;99592.73;1684156;82;21109;-63
2021/05/18 05:55:45;;;;;;;8.53;2.90;;;;;;;15.98;100.00;99581.63;1696569;82;21113;-63
2021/05/18 05:58:11;;;;;;;4.05;2.58;;;;;;;15.92;100.00;99570.44;1695490;82;21502;-63
2021/05/18 06:00:39;;;;;;;5.83;2.70;;;;;;;15.85;100.00;99572.71;1690196;82;21085;-63
2021/05/18 06:03:05;;;;;;;4.67;2.75;;;;;;;15.81;100.00;99568.53;1693174;82;21067;-65
2021/05/18 06:05:32;;;;;;;5.92;2.60;;;;;;;15.80;100.00;99573.05;1682994;82;21105;-63
2021/05/18 06:07:59;;;;;;;7.15;3.00;;;;;;;15.84;100.00;99573.69;1696289;81;21656;-62
2021/05/18 06:37:22;;;;;;;12.95;3.77;;;;;;;16.32;100.00;99550.63;1697130;82;20224;-64
2021/05/18 06:47:38;;;;;;;10.20;4.05;;;;;;;16.52;100.00;99564.44;1697610;82;21322;-64
2021/05/18 06:52:43;;;;;;;5.83;3.08;;;;;;;16.53;100.00;99570.22;1679266;82;20969;-65
2021/05/18 06:55:13;;;;;;;7.17;2.50;;;;;;;16.50;100.00;99575.88;1660575;84;21128;-65
2021/05/18 06:57:50;;;;;;;6.90;2.40;;;;;;;16.46;100.00;99578.42;1653601;84;22630;-64
2021/05/18 07:00:20;;;;;;;10.53;2.72;;;;;;;16.48;100.00;99575.13;1657975;84;21549;-62
2021/05/18 07:02:49;;;;;;;3.70;2.40;;;;;;;16.51;100.00;99564.06;1655731;84;21078;-63
2021/05/18 07:05:23;;;;;;;4.17;2.33;;;;;;;16.56;100.00;99564.55;1656680;84;20923;-61
2021/05/18 07:07:48;;;;;;;8.50;2.72;;;;;;;16.63;100.00;99568.12;1655402;84;21140;-61
2021/05/18 07:10:14;;;;;;;5.72;2.30;;;;;;;16.61;100.00;99558.28;1651642;84;21076;-62
2021/05/18 07:12:40;;;;;;;13.45;2.65;;;;;;;16.61;100.00;99567.75;1655919;84;21143;-62
2021/05/18 07:15:11;;;;;;;11.35;2.60;;;;;;;16.59;100.00;99567.02;1664483;84;21187;-64
2021/05/18 07:17:40;;;;;;;7.90;2.72;;;;;;;16.55;100.00;99562.83;1665012;84;21464;-60
2021/05/18 07:20:10;;;;;;;10.78;2.67;;;;;;;16.48;100.00;99556.20;1665415;84;21102;-65
2021/05/18 07:22:37;;;;;;;11.38;2.77;;;;;;;16.43;100.00;99553.84;1665734;84;20990;-63
2021/05/18 07:25:05;;;;;;;9.10;2.40;;;;;;;16.36;100.00;99547.69;1665311;84;21180;-62
2021/05/18 07:27:32;;;;;;;9.63;2.40;;;;;;;16.31;100.00;99534.52;1671492;84;21523;-60
2021/05/18 07:29:59;;;;;;;12.98;2.95;;;;;;;16.24;100.00;99520.61;1662247;84;20966;-59
2021/05/18 07:32:26;;;;;;;12.23;2.67;;;;;;;16.16;100.00;99513.13;1651073;84;21644;-59
2021/05/18 07:34:55;;;;;;;8.23;2.42;;;;;;;16.06;100.00;99495.88;1662839;84;21575;-63
2021/05/18 07:37:23;;;;;;;14.93;2.77;;;;;;;15.97;100.00;99474.48;1665191;84;22707;-62
2021/05/18 07:39:50;;;;;;;8.68;2.50;;;;;;;15.86;100.00;99448.27;1663137;84;21189;-64
2021/05/18 07:42:17;;;;;;;9.45;2.17;;;;;;;15.76;100.00;99453.52;1659151;84;21442;-63
2021/05/18 07:44:44;;;;;;;11.80;2.62;;;;;;;15.67;100.00;99462.35;1665607;84;20980;-63
2021/05/18 07:47:13;;;;;;;12.07;2.65;;;;;;;15.58;100.00;99487.35;1673560;83;21018;-63
2021/05/18 07:49:43;;;;;;;10.05;2.27;;;;;;;15.50;100.00;99496.54;1671344;84;21052;-64
2021/05/18 08:00:36;;;;;;;10.82;2.20;;;;;;;15.24;100.00;99458.88;1676467;84;20177;-62
2021/05/18 08:05:40;;;;;;;;;;;;;;;15.22;100.00;99479.73;1675614;84;21146;-61
2021/05/18 08:08:07;;;;;;;10.58;2.00;;;;;;;15.23;100.00;99480.09;1664266;84;20234;-62
2021/05/18 08:10:44;;;;;;;9.28;2.20;;;;;;;15.22;100.00;99464.88;1651854;84;21122;-66
2021/05/18 08:13:03;;;;;;;10.23;2.27;;;;;;;15.25;100.00;99468.69;1658875;84;21637;-65
2021/05/18 08:15:42;;;;;;;10.95;2.10;;;;;;;15.33;100.00;99476.59;1650677;84;21510;-65
2021/05/18 08:18:09;;;;;;;8.93;2.42;;;;;;;15.46;100.00;99479.22;1655474;86;21058;-68
2021/05/18 09:44:22;;;;;;;8.98;2.60;;;;;;;19.87;81.29;99470.27;1655982;84;21004;-63
2021/05/18 10:35:17;;;;;;;8.00;4.78;;;;;;;19.63;82.38;99445.77;1638474;85;21404;-61
2021/05/18 10:37:23;;;;;;;12.40;5.17;;;;;;;19.61;82.19;99449.12;1620691;84;20997;-63
2021/05/18 10:40:26;;;;;;;12.20;5.70;;;;;;;19.65;82.29;99449.20;1651814;84;22031;-64
2021/05/18 10:43:20;;;;;;;11.33;4.80;;;;;;;19.76;82.37;99451.73;1652686;84;21159;-61
2021/05/18 10:46:06;;;;;;;8.68;4.20;;;;;;;19.89;82.20;99443.79;1630683;85;21092;-63
2021/05/18 10:48:42;;;;;;;7.50;4.58;;;;;;;19.97;81.68;99433.06;1656638;84;21069;-60
2021/05/18 10:51:30;;;;;;;8.80;4.42;;;;;;;19.97;81.02;99433.06;1657378;84;21646;-64
2021/05/18 10:54:21;;;;;;;7.97;4.62;;;;;;;19.91;80.32;99425.49;1651042;84;21556;-65
2021/05/18 10:56:59;;;;;;;6.80;5.05;;;;;;;19.81;80.75;99430.08;1638030;85;21516;-64
2021/05/18 10:59:48;;;;;;;9.55;4.28;;;;;;;19.67;81.49;99423.20;1659190;85;21025;-65
2021/05/18 11:02:24;;;;;;;7.30;3.92;;;;;;;19.59;82.13;99419.36;1634067;85;21151;-66
2021/05/18 11:05:10;;;;;;;6.87;3.80;;;;;;;19.46;81.78;99406.59;1654412;84;21024;-65
2021/05/18 11:07:41;;;;;;;4.80;3.60;;;;;;;19.32;82.61;99422.80;1657245;84;21076;-64
2021/05/18 11:10:16;;;;;;;3.95;3.50;;;;;;;19.15;83.60;99415.74;1659892;84;21375;-64
2021/05/18 11:12:46;;;;;;;6.35;3.20;;;;;;;19.00;84.34;99408.48;1659187;84;21069;-64
2021/05/18 11:15:20;;;;;;;7.62;3.65;;;;;;;18.94;84.60;99420.41;1659214;84;21065;-65
2021/05/18 11:17:49;;;;;;;5.10;3.60;;;;;;;18.90;84.99;99415.26;1649460;84;21484;-65
2021/05/18 11:23:27;;;;;;;5.30;3.55;;;;;;;18.89;85.08;99406.72;1652420;84;21234;-65
2021/05/18 11:26:02;;;;;;;5.37;3.90;;;;;;;18.91;85.16;99398.45;1653095;84;21110;-64
2021/05/18 11:28:52;;;;;;;9.83;4.12;;;;;;;18.92;84.67;99399.32;1649648;84;21176;-66
2021/05/18 11:31:22;;;;;;;13.15;4.12;;;;;;;18.92;84.21;99412.90;1644793;84;21480;-65
2021/05/18 11:33:56;;;;;;;4.67;3.90;;;;;;;18.90;83.88;99409.83;1623589;84;21038;-65
2021/05/18 11:36:28;;;;;;;5.05;3.67;;;;;;;18.88;83.45;99399.58;1668902;84;21007;-65
2021/05/18 11:39:02;;;;;;;7.20;3.95;;;;;;;18.85;83.24;99408.00;1668760;84;20974;-65
2021/05/18 11:41:34;;;;;;;6.47;4.45;;;;;;;18.81;83.21;99417.44;1672194;84;21456;-66
2021/05/18 11:44:04;;;;;;;5.87;4.33;;;;;;;18.77;83.46;99418.72;1672920;83;21499;-66
2021/05/18 11:46:32;;;;;;;6.95;4.40;;;;;;;18.78;83.56;99419.56;1662955;84;21710;-66
2021/05/18 11:49:11;;;;;;;9.00;5.33;;;;;;;18.78;83.79;99421.80;1660640;83;21142;-66
2021/05/18 11:51:45;;;;;;;6.17;5.03;;;;;;;18.76;83.51;99404.27;1662225;84;21159;-65
2021/05/18 11:54:17;;;;;;;6.83;5.53;;;;;;;18.74;83.30;99412.22;1660058;84;21205;-66
2021/05/18 11:56:45;;;;;;;7.30;5.35;;;;;;;18.72;83.35;99414.22;1662821;84;21166;-66
2021/05/18 11:59:18;;;;;;;7.58;5.50;;;;;;;18.74;83.39;99405.43;1663452;84;21170;-65
2021/05/18 12:01:55;;;;;;;6.92;5.65;;;;;;;18.79;83.36;99405.86;1666187;84;21031;-66
2021/05/18 12:04:24;;;;;;;8.03;6.33;;;;;;;18.84;82.88;99391.36;1660980;84;21521;-66
2021/05/18 12:07:01;;;;;;;7.12;6.42;;;;;;;18.86;81.81;99392.59;1657267;84;21174;-63
2021/05/18 12:09:34;;;;;;;7.47;6.55;;;;;;;18.86;81.56;99412.44;1661480;83;20976;-65
2021/05/18 12:12:08;;;;;;;8.18;6.50;;;;;;;18.92;81.29;99412.90;1649342;84;20997;-65
2021/05/18 12:14:44;;;;;;;8.85;7.10;;;;;;;18.99;80.10;99413.55;1647629;84;21700;-66
2021/05/18 12:17:12;;;;;;;10.45;7.25;;;;;;;19.09;80.09;99412.21;1653939;84;21404;-66
2021/05/18 12:19:39;;;;;;;10.82;7.25;;;;;;;19.19;79.51;99406.78;1648721;84;21799;-65
2021/05/18 12:22:07;;;;;;;15.32;7.30;;;;;;;19.26;78.46;99412.52;1648065;84;21536;-63
2021/05/18 12:24:42;;;;;;;9.65;7.30;;;;;;;19.33;78.60;99379.68;1651453;84;21151;-64
2021/05/18 12:27:11;;;;;;;9.80;7.40;;;;;;;19.41;78.83;99394.78;1651087;84;21671;-62
2021/05/18 12:29:46;;;;;;;14.13;8.33;;;;;;;19.47;78.54;99389.28;1670673;84;20999;-63
2021/05/18 12:32:22;;;;;;;9.73;7.72;;;;;;;19.46;78.32;99384.84;1658924;84;21424;-64
2021/05/18 12:35:08;;;;;;;7.47;6.60;;;;;;;19.36;78.50;99398.92;1654997;84;21187;-63
2021/05/18 12:37:44;;;;;;;7.37;6.55;;;;;;;19.25;78.67;99404.01;1655056;84;21619;-64
2021/05/18 12:40:33;;;;;;;7.87;6.45;;;;;;;19.17;78.63;99409.66;1649015;84;21706;-63
2021/05/18 12:43:24;;;;;;;10.05;6.03;;;;;;;19.14;78.60;99407.23;1657624;84;21035;-64
2021/05/18 12:46:08;;;;;;;7.72;5.42;;;;;;;19.11;78.83;99399.34;1656600;84;21671;-64
2021/05/18 12:48:39;;;;;;;7.35;4.87;;;;;;;19.00;79.59;99406.28;1659994;83;20999;-63
2021/05/18 12:51:18;;;;;;;4.20;2.77;;;;;;;18.86;79.52;99407.00;1654564;82;20992;-64
2021/05/18 12:53:44;;;;;;;2.70;1.52;;;;;;;18.70;77.24;99403.48;1658702;83;21161;-63
2021/05/18 12:56:15;;;;;;;2.22;1.22;;;;;;;18.52;74.32;99403.78;1652030;84;21100;-63
2021/05/18 12:58:40;;;;;;;2.67;1.32;;;;;;;18.27;73.30;99407.34;1653330;84;21770;-61
2021/05/18 13:01:15;;;;;;;3.27;1.50;;;;;;;17.98;72.25;99404.81;1651358;84;21182;-63
2021/05/18 13:03:44;;;;;;;2.77;0.90;;;;;;;17.73;71.82;99403.41;1651965;84;21097;-63
2021/05/18 13:06:11;;;;;;;3.75;1.30;;;;;;;17.50;71.27;99405.38;1649673;84;21170;-61
2021/05/18 13:08:40;;;;;;;3.02;1.30;;;;;;;17.30;70.45;99402.52;1655467;84;21023;-63
2021/05/18 13:13:55;;;;;;;4.60;1.10;;;;;;;17.06;69.82;99400.89;1646397;84;21143;-62
2021/05/18 13:16:32;;;;;;;2.85;1.22;;;;;;;16.95;70.07;99394.15;1653591;84;21142;-63
2021/05/18 13:19:15;;;;;;;3.10;1.17;;;;;;;16.93;70.52;99397.48;1655946;83;21616;-63
2021/05/18 13:21:56;;;;;;;1.15;0.98;;;;;;;16.92;71.01;99393.05;1652841;84;21111;-63
2021/05/18 13:27:08;;;;;;;4.95;1.32;;;;;;;16.88;72.04;99398.70;1652700;84;21201;-66
2021/05/18 13:29:35;;;;;;;2.20;1.10;;;;;;;16.94;73.10;99397.33;1652913;84;21138;-66
2021/05/18 13:32:02;;;;;;;3.62;1.40;;;;;;;17.00;74.16;99389.23;1653291;84;21198;-66
2021/05/18 13:34:29;;;;;;;2.50;1.42;;;;;;;17.15;73.93;99389.31;1649406;84;21123;-66
2021/05/18 13:36:57;;;;;;;3.55;1.30;;;;;;;17.29;73.77;99394.91;1646284;84;21667;-67
2021/05/18 13:39:25;;;;;;;1.45;1.30;;;;;;;17.43;74.19;99390.14;1645948;84;20995;-67
2021/05/18 13:41:53;;;;;;;3.35;1.60;;;;;;;17.58;74.24;99389.34;1647073;84;21161;-66
2021/05/18 13:44:20;;;;;;;2.83;1.45;;;;;;;17.73;73.40;99379.86;1648948;84;21106;-66
2021/05/18 13:46:48;;;;;;;2.55;1.47;;;;;;;17.93;72.72;99378.61;1635952;84;21636;-62
2021/05/18 13:49:15;;;;;;;5.60;1.70;;;;;;;18.09;72.11;99378.66;1643453;84;21897;-63
2021/05/18 13:51:42;;;;;;;2.42;1.47;;;;;;;18.22;71.23;99381.97;1647044;84;21094;-66
2021/05/18 13:54:11;;;;;;;5.03;1.40;;;;;;;18.35;68.61;99383.60;1641595;84;21209;-66
2021/05/18 13:56:38;;;;;;;5.03;1.30;;;;;;;18.48;68.07;99389.66;1642660;84;21125;-66
2021/05/18 13:59:04;;;;;;;3.75;1.57;;;;;;;18.58;68.56;99393.24;1644698;84;21106;-62
2021/05/18 14:01:32;;;;;;;3.58;1.67;;;;;;;18.65;68.13;99397.63;1690470;82;21661;-61
2021/05/18 14:03:58;;;;;;;4.92;1.50;;;;;;;18.70;67.26;99409.43;1698951;82;21093;-65
2021/05/18 14:06:27;;;;;;;4.67;1.20;;;;;;;18.74;67.63;99398.64;1688780;82;21152;-61
2021/05/18 14:08:55;;;;;;;4.65;1.62;;;;;;;18.74;66.93;99406.27;1693376;82;21088;-63
2021/05/18 14:11:23;;;;;;;6.05;1.90;;;;;;;18.72;67.02;99402.00;1693061;82;21123;-60
2021/05/18 14:13:51;;;;;;;7.25;1.60;;;;;;;18.66;66.90;99399.81;1689172;82;21634;-59
2021/05/18 14:16:22;;;;;;;7.25;1.57;;;;;;;18.58;67.43;99398.67;1692707;82;21133;-63
2021/05/18 14:19:11;;;;;;;12.93;1.20;;;;;;;18.53;68.07;99404.14;1684780;82;21125;-65
2021/05/18 14:21:40;;;;;;;6.42;1.00;;;;;;;18.47;68.72;99403.70;1668792;83;21035;-61
2021/05/18 14:24:18;;;;;;;6.55;1.47;;;;;;;18.40;69.09;99403.91;1649466;85;21099;-62
2021/05/18 14:26:40;;;;;;;5.00;1.62;;;;;;;18.36;68.97;99412.45;1674940;84;21178;-66
2021/05/18 14:29:07;;;;;;;8.70;1.60;;;;;;;18.27;69.09;99408.70;1651498;84;21127;-62
2021/05/18 14:31:34;;;;;;;6.15;1.05;;;;;;;18.21;69.50;99406.03;1680369;83;21043;-64
2021/05/18 14:34:01;;;;;;;7.28;1.30;;;;;;;18.14;69.91;99408.94;1672567;84;22115;-64
2021/05/18 14:36:28;;;;;;;3.95;1.20;;;;;;;18.06;70.44;99414.19;1674817;83;21122;-65
2021/05/18 14:38:55;;;;;;;5.75;1.40;;;;;;;17.99;71.00;99409.76;1670743;83;21699;-62
2021/05/18 14:56:57;;;;;;;4.95;1.22;;;;;;;17.49;74.48;99409.08;1675692;83;21087;-65
2021/05/18 14:59:24;;;;;;;4.35;1.20;;;;;;;17.34;73.98;99420.22;1673214;83;21143;-61
2021/05/18 15:01:51;;;;;;;2.37;1.12;;;;;;;17.23;74.97;99429.25;1674184;83;21347;-64
2021/05/18 15:04:19;;;;;;;5.80;1.45;;;;;;;17.12;76.77;99420.67;1679453;83;21673;-64
2021/05/18 15:06:45;;;;;;;7.42;1.20;;;;;;;17.00;76.56;99423.92;1671540;83;21142;-64
2021/05/18 15:09:13;;;;;;;3.47;1.10;;;;;;;16.92;76.89;99421.48;1672562;84;21149;-61
2021/05/18 15:11:39;;;;;;;4.10;0.95;;;;;;;16.78;76.69;99403.65;1672216;84;21628;-61
2021/05/18 15:14:07;;;;;;;4.03;1.10;;;;;;;16.66;77.40;99417.70;1674156;85;20979;-65
2021/05/18 15:16:35;;;;;;;4.70;0.88;;;;;;;16.54;77.27;99413.67;1669019;85;21843;-66
2021/05/18 15:19:08;;;;;;;5.40;0.80;;;;;;;16.40;75.25;99399.05;1670442;83;21137;-65
2021/05/18 15:21:33;;;;;;;2.08;0.60;;;;;;;16.31;73.78;99397.47;1678589;83;21139;-65
2021/05/18 15:24:01;;;;;;;4.72;0.60;;;;;;;16.22;72.06;99392.78;1680948;84;20943;-64
2021/05/18 15:26:28;;;;;;;0.82;0.50;;;;;;;16.14;70.88;99399.31;1710148;82;21048;-64
2021/05/18 15:28:54;;;;;;;1.10;0.60;;;;;;;16.08;70.80;99394.41;1711524;83;21074;-65
2021/05/18 15:31:20;;;;;;;1.00;0.53;;;;;;;16.06;70.88;99390.45;1708713;83;21095;-64
2021/05/18 15:33:47;;;;;;;1.00;0.68;;;;;;;16.07;71.24;99383.22;1693149;83;21856;-64
2021/05/18 15:36:15;;;;;;;4.45;0.90;;;;;;;16.12;72.50;99375.59;1672828;84;21935;-64
2021/05/18 15:38:45;;;;;;;4.37;1.10;;;;;;;16.22;74.14;99382.48;1675809;84;21118;-64
2021/05/18 15:41:13;;;;;;;1.95;0.85;;;;;;;16.35;76.04;99376.93;1675805;85;21827;-65
2021/05/18 15:43:39;;;;;;;6.80;1.20;;;;;;;16.50;77.21;99378.39;1680309;83;21011;-64
2021/05/18 15:46:06;;;;;;;3.30;0.90;;;;;;;16.67;77.47;99377.48;1678043;83;22186;-64
2021/05/18 15:48:33;;;;;;;6.15;1.15;;;;;;;16.84;77.48;99371.53;1671906;83;21560;-65
2021/05/18 15:51:00;;;;;;;4.58;1.10;;;;;;;17.02;77.94;99366.95;1694128;83;21773;-65
2021/05/18 15:53:26;;;;;;;3.20;1.00;;;;;;;17.18;78.01;99359.26;1687695;83;21755;-65
2021/05/18 15:55:53;;;;;;;3.58;0.95;;;;;;;17.34;77.89;99366.05;1682520;83;21320;-64
2021/05/18 15:58:21;;;;;;;7.85;1.35;;;;;;;17.46;76.95;99362.30;1694638;83;21170;-64
2021/05/18 16:00:48;;;;;;;1.57;0.82;;;;;;;17.55;76.46;99359.30;1687863;83;21148;-65
2021/05/18 16:03:15;;;;;;;4.30;1.20;;;;;;;17.64;76.48;99361.70;1680076;83;21114;-64
2021/05/18 16:05:43;;;;;;;3.92;1.07;;;;;;;17.71;76.15;99362.88;1677531;83;21110;-61
2021/05/18 16:10:59;;;;;;;4.05;1.40;;;;;;;17.80;75.50;99357.66;1697779;83;21109;-61
2021/05/18 16:13:26;;;;;;;2.00;1.00;;;;;;;17.82;75.42;99362.45;1700845;82;20982;-65
2021/05/18 16:16:07;;;;;;;3.62;1.12;;;;;;;17.81;75.45;99360.73;1693626;83;21023;-65
2021/05/18 16:18:38;;;;;;;2.02;0.90;;;;;;;17.79;75.72;99364.05;1695553;83;21110;-64
2021/05/18 16:21:08;;;;;;;2.37;0.90;;;;;;;17.76;75.47;99360.61;1695076;82;21030;-64
2021/05/18 16:23:37;;;;;;;2.08;1.00;;;;;;;17.72;75.52;99355.11;1673571;83;21093;-61
2021/05/18 16:26:03;;;;;;;3.75;0.90;;;;;;;17.73;75.17;99354.63;1693333;83;21007;-60
2021/05/18 16:28:30;;;;;;;5.17;1.00;;;;;;;17.70;74.37;99354.38;1676520;83;21431;-59
2021/05/18 16:30:58;;;;;;;3.58;0.78;;;;;;;17.68;74.05;99353.66;1736817;80;21033;-62
2021/05/18 16:33:25;;;;;;;2.85;0.78;;;;;;;17.66;74.22;99352.06;1707052;82;21997;-59
2021/05/18 16:35:51;;;;;;;2.22;0.82;;;;;;;17.63;74.06;99352.34;1728953;81;21208;-62
2021/05/18 16:38:18;;;;;;;1.12;0.80;;;;;;;17.59;74.18;99349.06;1747066;80;21763;-61
2021/05/18 16:40:45;;;;;;;2.05;0.70;;;;;;;17.54;74.21;99347.22;1736890;81;21491;-62
2021/05/18 16:43:13;;;;;;;3.27;1.07;;;;;;;17.50;73.89;99348.48;1740309;80;21003;-61
2021/05/18 16:45:40;;;;;;;4.30;0.70;;;;;;;17.46;73.34;99344.69;1742947;80;20939;-61